Time;durP1;ratioP1;P1;durP2;ratioP2;P2;SDS_P1;SDS_P2;PMS_P1;PMS_P2;Temp;Humidity;BMP_temperature;BMP_pressure;BME280_temperature;BME280_humidity;BME280_pressure;Samples;Min_cycle;Max_cycle;Signal;HPM_P1;HPM_P2
2022/09/01 00:02:54;;;;;;;7.37;2.52;;;;;;;11.89;100.00;99324.13;2228661;79;21062;-58
2022/09/01 00:05:56;;;;;;;7.42;2.22;;;;;;;11.80;100.00;99327.30;2230353;79;21012;-58
2022/09/01 00:08:57;;;;;;;10.82;2.62;;;;;;;11.76;100.00;99327.09;2228984;79;21015;-57
2022/09/01 00:12:00;;;;;;;8.73;2.50;;;;;;;11.67;100.00;99327.16;2229946;79;21058;-56
2022/09/01 00:15:01;;;;;;;7.47;2.70;;;;;;;11.64;100.00;99322.09;2226650;79;21015;-57
2022/09/01 00:18:03;;;;;;;10.13;2.27;;;;;;;11.61;100.00;99320.95;2228616;78;21035;-57
2022/09/01 00:21:05;;;;;;;9.45;2.50;;;;;;;11.57;100.00;99320.75;2228790;79;21028;-57
2022/09/01 00:24:06;;;;;;;8.20;2.37;;;;;;;11.48;100.00;99324.75;2228440;80;21062;-57
2022/09/01 00:27:08;;;;;;;13.07;2.90;;;;;;;11.43;100.00;99321.08;2228752;79;21062;-57
2022/09/01 00:30:09;;;;;;;7.92;2.45;;;;;;;11.38;100.00;99319.64;2230038;79;21039;-57
2022/09/01 00:33:11;;;;;;;14.40;3.00;;;;;;;11.37;100.00;99320.56;2228746;79;21534;-57
2022/09/01 00:36:12;;;;;;;11.30;2.90;;;;;;;11.40;100.00;99319.07;2226825;80;21008;-57
2022/09/01 00:39:14;;;;;;;11.57;2.83;;;;;;;11.49;100.00;99320.33;2228625;79;21553;-58
2022/09/01 00:42:16;;;;;;;9.73;2.73;;;;;;;11.53;100.00;99321.85;2228920;79;20992;-58
2022/09/01 00:45:19;;;;;;;9.70;2.50;;;;;;;11.54;100.00;99316.98;2230666;79;21074;-57
2022/09/01 00:48:20;;;;;;;9.70;2.55;;;;;;;11.54;100.00;99316.98;2202446;80;21000;-56
2022/09/01 00:51:22;;;;;;;9.67;2.60;;;;;;;11.63;100.00;99321.70;2224639;79;21047;-57
2022/09/01 00:54:23;;;;;;;10.85;2.33;;;;;;;11.68;100.00;99313.55;2228561;79;21019;-58
2022/09/01 00:57:25;;;;;;;10.13;2.80;;;;;;;11.78;100.00;99316.88;2229688;79;21518;-57
2022/09/01 01:00:26;;;;;;;8.00;2.58;;;;;;;11.86;100.00;99313.79;2227950;79;21019;-56
2022/09/01 01:03:29;;;;;;;15.23;2.83;;;;;;;11.94;100.00;99310.77;2228764;79;21541;-56
2022/09/01 01:06:31;;;;;;;12.28;2.70;;;;;;;11.94;100.00;99306.34;2227486;79;21094;-56
2022/09/01 01:09:33;;;;;;;9.70;2.83;;;;;;;11.98;100.00;99311.41;2225603;79;20973;-57
2022/09/01 01:12:37;;;;;;;14.43;3.30;;;;;;;11.99;100.00;99313.95;2227969;79;20991;-57
2022/09/01 01:15:42;;;;;;;13.83;3.22;;;;;;;12.04;100.00;99314.98;2186596;80;21550;-58
2022/09/01 01:18:41;;;;;;;11.28;3.00;;;;;;;12.07;100.00;99312.20;2202387;79;21090;-58
2022/09/01 01:24:47;;;;;;;11.05;3.12;;;;;;;12.12;100.00;99312.31;2202339;79;21044;-58
2022/09/01 01:27:48;;;;;;;8.68;2.60;;;;;;;12.04;100.00;99313.22;2227950;79;20988;-58
2022/09/01 01:30:51;;;;;;;14.45;3.17;;;;;;;12.01;100.00;99314.72;2229156;79;21003;-58
2022/09/01 01:33:52;;;;;;;14.15;3.33;;;;;;;12.08;100.00;99313.88;2228148;80;21061;-58
2022/09/01 01:36:58;;;;;;;13.65;3.12;;;;;;;12.13;100.00;99315.77;2228473;79;21008;-58
2022/09/01 01:39:57;;;;;;;13.32;3.12;;;;;;;12.20;100.00;99311.84;2193842;79;21011;-58
2022/09/01 01:43:00;;;;;;;12.15;3.20;;;;;;;12.20;100.00;99314.95;2228272;79;21027;-59
2022/09/01 01:46:04;;;;;;;14.00;3.12;;;;;;;12.25;100.00;99307.61;2229045;79;21505;-59
2022/09/01 01:49:05;;;;;;;13.43;3.02;;;;;;;12.22;100.00;99308.63;2211653;79;21048;-59
2022/09/01 01:52:07;;;;;;;14.50;2.77;;;;;;;12.22;100.00;99306.48;2228288;80;21035;-59
2022/09/01 01:55:11;;;;;;;14.55;3.20;;;;;;;12.15;100.00;99306.47;2228618;78;21023;-59
2022/09/01 01:58:13;;;;;;;14.83;3.15;;;;;;;12.04;100.00;99300.52;2209763;79;21024;-58
2022/09/01 02:01:15;;;;;;;14.68;3.25;;;;;;;12.05;100.00;99303.09;2227933;80;21608;-58
2022/09/01 02:04:18;;;;;;;;;;;;;;;11.94;100.00;99301.08;2231728;79;21007;-58
2022/09/01 02:07:20;;;;;;;13.75;3.10;;;;;;;11.97;100.00;99304.01;2229896;80;20241;-58
2022/09/01 02:10:21;;;;;;;11.80;3.10;;;;;;;11.85;100.00;99311.25;2228739;79;21526;-58
2022/09/01 02:13:24;;;;;;;12.47;3.58;;;;;;;11.82;100.00;99305.70;2228715;80;20948;-58
2022/09/01 02:16:25;;;;;;;15.85;3.67;;;;;;;11.73;100.00;99300.52;2227076;80;21576;-58
2022/09/01 02:19:27;;;;;;;12.57;3.00;;;;;;;11.68;100.00;99303.03;2228825;79;20999;-58
2022/09/01 02:22:28;;;;;;;12.85;3.02;;;;;;;11.69;100.00;99304.26;2229443;79;21482;-59
2022/09/01 02:25:30;;;;;;;11.53;3.27;;;;;;;11.78;100.00;99306.84;2229527;79;21043;-59
2022/09/01 02:28:33;;;;;;;12.47;3.35;;;;;;;11.86;100.00;99301.96;2228488;80;21545;-58
2022/09/01 02:31:38;;;;;;;12.88;2.90;;;;;;;11.95;100.00;99299.29;2228694;80;21055;-58
2022/09/01 02:34:39;;;;;;;15.55;3.50;;;;;;;11.98;100.00;99300.90;2202540;79;21028;-58
2022/09/01 02:37:42;;;;;;;12.98;3.30;;;;;;;12.09;100.00;99301.11;2228254;79;20991;-57
2022/09/01 02:40:44;;;;;;;14.30;3.37;;;;;;;12.15;100.00;99308.63;2229427;79;21393;-57
2022/09/01 02:43:45;;;;;;;14.53;3.50;;;;;;;12.20;100.00;99306.58;2228888;79;21031;-58
2022/09/01 02:46:47;;;;;;;13.03;3.12;;;;;;;12.23;100.00;99302.92;2229102;79;20975;-58
2022/09/01 02:49:49;;;;;;;12.90;3.30;;;;;;;12.33;100.00;99303.22;2228794;79;21012;-58
2022/09/01 02:52:51;;;;;;;15.13;3.52;;;;;;;12.32;100.00;99306.78;2230185;80;20984;-58
2022/09/01 02:55:56;;;;;;;11.50;2.83;;;;;;;12.36;100.00;99303.03;2229077;79;21070;-58
2022/09/01 02:58:56;;;;;;;16.45;4.17;;;;;;;12.42;100.00;99302.64;2203677;80;21538;-59
2022/09/01 03:01:58;;;;;;;15.00;3.27;;;;;;;12.33;100.00;99302.73;2228720;80;20988;-58
2022/09/01 03:05:00;;;;;;;13.50;3.00;;;;;;;12.34;100.00;99302.26;2228491;79;21292;-58
2022/09/01 03:08:02;;;;;;;;;;;;;;;12.24;100.00;99304.14;2231678;80;21036;-57
2022/09/01 03:11:07;;;;;;;12.98;3.02;;;;;;;12.22;100.00;99302.54;2249529;78;20389;-57
2022/09/01 03:14:07;;;;;;;13.68;3.27;;;;;;;12.22;100.00;99299.42;2193846;80;21016;-57
2022/09/01 03:17:09;;;;;;;10.40;3.27;;;;;;;12.12;100.00;99295.22;2223152;79;21044;-57
2022/09/01 03:20:10;;;;;;;11.75;3.17;;;;;;;12.13;100.00;99296.88;2214034;79;20984;-57
2022/09/01 03:23:13;;;;;;;14.15;4.25;;;;;;;12.14;100.00;99296.44;2231363;79;21022;-57
2022/09/01 03:26:17;;;;;;;13.88;3.30;;;;;;;12.29;100.00;99298.59;2216018;78;20994;-58
2022/09/01 03:29:18;;;;;;;16.87;3.83;;;;;;;12.27;100.00;99289.97;2200147;79;20976;-58
2022/09/01 03:32:20;;;;;;;17.10;3.58;;;;;;;12.37;100.00;99291.09;2223202;79;21540;-58
2022/09/01 03:35:22;;;;;;;16.10;3.52;;;;;;;12.20;100.00;99292.11;2219790;80;20972;-59
2022/09/01 03:38:23;;;;;;;14.35;3.30;;;;;;;12.19;100.00;99288.27;2214130;78;21525;-58
2022/09/01 03:41:24;;;;;;;15.08;3.40;;;;;;;12.27;100.00;99286.02;2207287;80;21040;-59
2022/09/01 03:44:26;;;;;;;15.30;3.45;;;;;;;12.23;100.00;99290.61;2257029;78;21091;-58
2022/09/01 03:47:27;;;;;;;17.77;3.72;;;;;;;12.07;100.00;99289.38;2255061;78;20984;-59
2022/09/01 03:50:29;;;;;;;11.70;3.10;;;;;;;12.08;100.00;99286.27;2255015;78;21020;-58
2022/09/01 03:53:31;;;;;;;10.40;3.00;;;;;;;11.97;100.00;99288.23;2255044;78;21072;-58
2022/09/01 03:56:33;;;;;;;8.93;2.80;;;;;;;12.05;100.00;99293.02;2255618;78;21008;-58
2022/09/01 03:59:34;;;;;;;10.40;2.85;;;;;;;12.05;100.00;99293.02;2253865;78;21024;-58
2022/09/01 04:02:36;;;;;;;11.80;2.93;;;;;;;11.90;100.00;99292.13;2255451;78;20988;-58
2022/09/01 04:05:39;;;;;;;13.50;3.60;;;;;;;11.76;100.00;99295.08;2257432;78;21578;-58
2022/09/01 04:08:41;;;;;;;15.50;3.30;;;;;;;11.49;100.00;99292.75;2254577;79;21064;-57
2022/09/01 04:11:45;;;;;;;14.43;3.40;;;;;;;11.43;100.00;99302.69;2228245;79;21503;-57
2022/09/01 04:14:47;;;;;;;11.55;3.00;;;;;;;11.45;100.00;99296.03;2201778;79;21601;-58
2022/09/01 04:20:52;;;;;;;11.53;3.22;;;;;;;11.32;100.00;99298.95;2202019;79;20961;-58
2022/09/01 04:23:56;;;;;;;12.10;3.27;;;;;;;11.31;100.00;99304.69;2228778;79;21577;-58
2022/09/01 04:26:57;;;;;;;11.80;3.08;;;;;;;11.37;100.00;99310.06;2201840;80;20999;-57
2022/09/01 04:30:00;;;;;;;13.43;3.40;;;;;;;11.38;100.00;99307.34;2228112;79;21008;-57
2022/09/01 04:33:01;;;;;;;15.95;3.17;;;;;;;11.44;100.00;99308.78;2228733;78;21026;-57
2022/09/01 04:36:03;;;;;;;15.93;3.17;;;;;;;11.57;100.00;99309.76;2229972;79;21062;-57
2022/09/01 04:39:07;;;;;;;12.78;3.30;;;;;;;11.65;100.00;99310.65;2228896;79;21299;-58
2022/09/01 04:42:09;;;;;;;14.28;3.58;;;;;;;11.70;100.00;99306.44;2202961;79;21097;-57
2022/09/01 04:45:11;;;;;;;12.43;3.10;;;;;;;11.86;100.00;99311.64;2228766;79;21059;-57
2022/09/01 04:48:14;;;;;;;14.05;3.17;;;;;;;12.04;100.00;99308.41;2228657;79;21525;-57
2022/09/01 04:51:16;;;;;;;11.73;3.10;;;;;;;12.11;100.00;99311.92;2228486;79;21039;-57
2022/09/01 04:54:21;;;;;;;13.28;3.75;;;;;;;12.27;100.00;99311.01;2225854;80;21059;-57
2022/09/01 04:57:26;;;;;;;13.08;3.72;;;;;;;12.21;100.00;99314.85;2228354;79;21029;-55
2022/09/01 05:00:31;;;;;;;11.33;3.05;;;;;;;12.27;100.00;99310.53;2210584;79;21452;-55
2022/09/01 05:03:34;;;;;;;11.30;3.20;;;;;;;12.27;100.00;99305.27;2227775;80;21459;-55
2022/09/01 05:06:39;;;;;;;11.28;2.90;;;;;;;12.25;100.00;99311.55;2228831;78;21030;-55
2022/09/01 05:09:44;;;;;;;12.90;3.20;;;;;;;12.25;100.00;99303.19;2204662;79;21515;-55
2022/09/01 05:12:46;;;;;;;10.18;2.80;;;;;;;12.39;100.00;99303.67;2202230;80;21573;-55
2022/09/01 05:15:48;;;;;;;11.08;2.95;;;;;;;12.65;100.00;99302.55;2228547;79;21562;-55
2022/09/01 05:18:54;;;;;;;9.85;2.83;;;;;;;12.81;100.00;99296.72;2230081;79;21564;-55
2022/09/01 05:21:57;;;;;;;12.15;3.10;;;;;;;13.02;100.00;99308.14;2202957;79;21027;-55
2022/09/01 05:25:03;;;;;;;12.85;3.08;;;;;;;13.20;100.00;99308.73;2229012;79;21510;-55
2022/09/01 05:28:08;;;;;;;8.68;2.75;;;;;;;13.36;100.00;99299.43;2229398;79;21083;-54
2022/09/01 05:31:11;;;;;;;10.85;3.10;;;;;;;13.59;100.00;99311.09;2201663;79;21071;-55
2022/09/01 05:34:18;;;;;;;10.48;2.62;;;;;;;13.99;100.00;99307.58;2227843;79;21506;-57
2022/09/01 05:37:21;;;;;;;8.48;2.70;;;;;;;14.29;100.00;99309.09;2202194;80;21526;-57
2022/09/01 05:40:24;;;;;;;12.73;2.87;;;;;;;14.54;100.00;99301.16;2228257;79;21067;-57
2022/09/01 05:43:29;;;;;;;13.78;2.58;;;;;;;14.86;100.00;99303.84;2228188;79;21546;-57
2022/09/01 05:46:31;;;;;;;12.33;2.83;;;;;;;15.02;100.00;99299.13;2202908;79;21518;-57
2022/09/01 05:49:38;;;;;;;10.28;2.52;;;;;;;15.13;100.00;99308.94;2227201;78;21510;-58
2022/09/01 05:52:46;;;;;;;10.68;2.80;;;;;;;15.18;100.00;99298.86;2227557;79;20989;-58
2022/09/01 05:55:45;;;;;;;10.63;2.47;;;;;;;15.23;100.00;99296.74;2201768;79;21558;-59
2022/09/01 05:58:48;;;;;;;7.67;2.27;;;;;;;15.22;100.00;99293.72;2228786;79;21043;-58
2022/09/01 06:01:51;;;;;;;15.23;2.40;;;;;;;15.23;100.00;99303.84;2228224;79;21067;-59
2022/09/01 06:04:55;;;;;;;8.93;2.40;;;;;;;15.28;100.00;99300.84;2229361;80;21535;-59
2022/09/01 06:08:02;;;;;;;13.03;2.70;;;;;;;15.18;100.00;99301.50;2228575;79;21047;-57
2022/09/01 06:11:11;;;;;;;9.95;2.40;;;;;;;15.28;100.00;99303.49;2228757;79;21050;-59
2022/09/01 06:14:10;;;;;;;7.00;2.02;;;;;;;15.30;100.00;99306.85;2201671;78;21879;-58
2022/09/01 06:17:15;;;;;;;10.48;2.40;;;;;;;15.34;100.00;99311.83;2228410;79;21019;-57
2022/09/01 06:20:18;;;;;;;8.78;2.30;;;;;;;15.52;100.00;99306.97;2229094;79;21027;-57
2022/09/01 06:23:21;;;;;;;8.25;2.12;;;;;;;15.68;100.00;99308.48;2227267;80;20980;-55
2022/09/01 06:26:28;;;;;;;8.70;2.42;;;;;;;15.90;100.00;99311.25;2227281;79;21012;-55
2022/09/01 06:29:31;;;;;;;11.45;2.20;;;;;;;16.08;100.00;99310.80;2205538;79;21058;-57
2022/09/01 06:32:37;;;;;;;8.25;1.95;;;;;;;16.31;100.00;99313.50;2228163;80;21750;-57
2022/09/01 06:35:40;;;;;;;10.95;2.27;;;;;;;16.39;100.00;99315.05;2201728;79;21015;-57
2022/09/01 06:38:48;;;;;;;6.78;1.90;;;;;;;16.58;100.00;99308.70;2205098;79;20980;-58
2022/09/01 06:41:52;;;;;;;12.28;2.30;;;;;;;16.75;100.00;99317.97;2228313;79;21487;-55
2022/09/01 06:44:55;;;;;;;9.60;2.70;;;;;;;16.63;100.00;99322.89;2228303;79;21072;-58
2022/09/01 06:48:00;;;;;;;13.15;2.45;;;;;;;16.70;100.00;99329.39;2228244;78;20995;-57
2022/09/01 06:51:04;;;;;;;8.33;2.12;;;;;;;16.79;100.00;99327.83;2229317;79;21000;-57
2022/09/01 06:54:13;;;;;;;5.70;1.98;;;;;;;16.90;100.00;99326.53;2229033;79;21736;-57
2022/09/01 06:57:12;;;;;;;6.47;1.85;;;;;;;17.07;100.00;99323.03;2199903;80;21571;-57
2022/09/01 07:00:16;;;;;;;8.05;1.67;;;;;;;17.27;100.00;99335.52;2228060;79;21129;-57
2022/09/01 07:03:22;;;;;;;6.47;1.70;;;;;;;17.36;100.00;99339.72;2228119;80;21523;-57
2022/09/01 07:09:31;;;;;;;9.10;1.80;;;;;;;17.41;100.00;99334.86;2197219;79;21020;-57
2022/09/01 07:12:34;;;;;;;7.30;1.98;;;;;;;17.62;100.00;99341.06;2229839;80;21522;-58
2022/09/01 07:15:38;;;;;;;8.73;1.95;;;;;;;17.78;100.00;99339.80;2229478;79;21088;-57
2022/09/01 07:18:41;;;;;;;9.78;2.22;;;;;;;17.95;100.00;99345.07;2228818;79;21062;-57
2022/09/01 07:21:43;;;;;;;5.78;1.50;;;;;;;17.95;100.00;99345.07;2228388;79;21518;-57
2022/09/01 07:24:47;;;;;;;4.35;1.40;;;;;;;17.93;100.00;99345.20;2228320;80;21153;-57
2022/09/01 07:27:51;;;;;;;11.38;1.82;;;;;;;18.04;100.00;99344.78;2229245;79;21047;-57
2022/09/01 07:30:58;;;;;;;7.40;1.40;;;;;;;18.15;100.00;99358.00;2229365;79;21028;-57
2022/09/01 07:34:01;;;;;;;7.22;1.40;;;;;;;18.08;100.00;99355.50;2228250;79;21513;-59
2022/09/01 07:37:03;;;;;;;5.28;1.20;;;;;;;18.10;100.00;99356.20;2228522;79;21490;-59
2022/09/01 07:40:06;;;;;;;6.65;1.35;;;;;;;18.21;100.00;99350.01;2228427;80;21038;-59
2022/09/01 07:43:10;;;;;;;5.87;1.25;;;;;;;18.17;100.00;99362.22;2228994;79;21574;-59
2022/09/01 07:46:14;;;;;;;5.12;1.00;;;;;;;18.20;100.00;99369.05;2229233;79;21551;-59
2022/09/01 07:49:18;;;;;;;2.10;0.82;;;;;;;18.29;100.00;99362.98;2230531;79;20988;-59
2022/09/01 07:52:24;;;;;;;9.13;1.30;;;;;;;18.39;100.00;99360.86;2229049;80;21039;-59
2022/09/01 07:55:29;;;;;;;5.08;1.20;;;;;;;18.49;100.00;99359.13;2215525;79;21011;-59
2022/09/01 07:58:34;;;;;;;5.72;1.30;;;;;;;18.68;100.00;99354.40;2227695;80;21051;-60
2022/09/01 08:01:38;;;;;;;3.20;0.90;;;;;;;18.72;100.00;99358.48;2228537;79;21016;-59
2022/09/01 08:04:44;;;;;;;6.03;1.35;;;;;;;18.74;100.00;99358.34;2228542;79;21019;-60
2022/09/01 08:07:48;;;;;;;4.67;1.37;;;;;;;18.82;100.00;99359.82;2228247;79;21028;-57
2022/09/01 08:10:52;;;;;;;7.12;1.10;;;;;;;18.93;100.00;99365.58;2228745;78;20992;-57
2022/09/01 08:13:57;;;;;;;3.80;0.98;;;;;;;18.92;96.96;99362.09;2228725;79;21498;-58
2022/09/01 08:17:02;;;;;;;3.67;0.90;;;;;;;18.85;96.32;99366.23;2228849;79;21094;-58
2022/09/01 08:20:07;;;;;;;2.90;0.70;;;;;;;18.91;99.40;99364.38;2228784;80;21015;-58
2022/09/01 08:23:09;;;;;;;7.12;1.30;;;;;;;19.01;92.36;99372.41;2202083;79;21577;-55
2022/09/01 08:26:12;;;;;;;5.85;0.90;;;;;;;19.10;100.00;99366.77;2229072;80;21509;-57
2022/09/01 08:29:14;;;;;;;;;;;;;;;19.28;97.39;99365.14;2230757;79;21530;-59
2022/09/01 08:32:20;;;;;;;7.25;1.10;;;;;;;19.24;97.66;99360.20;2228601;79;20103;-58
2022/09/01 08:35:23;;;;;;;6.90;0.88;;;;;;;19.44;100.00;99359.75;2228028;80;21090;-59
2022/09/01 08:38:28;;;;;;;3.22;1.00;;;;;;;19.73;92.83;99358.48;2227637;79;21069;-58
2022/09/01 08:44:36;;;;;;;2.35;0.53;;;;;;;19.67;90.67;99372.34;2202541;79;21509;-58
2022/09/01 08:47:43;;;;;;;3.40;0.80;;;;;;;19.66;77.84;99369.33;2228367;78;21062;-58
2022/09/01 08:50:45;;;;;;;5.47;0.70;;;;;;;19.57;81.75;99364.34;2228432;79;21063;-59
2022/09/01 08:53:46;;;;;;;3.95;0.80;;;;;;;19.59;82.51;99365.53;2228291;79;21094;-57
2022/09/01 08:56:48;;;;;;;3.30;0.70;;;;;;;19.62;75.73;99363.42;2229104;80;21034;-59
2022/09/01 08:59:49;;;;;;;2.00;0.80;;;;;;;19.69;84.97;99355.23;2227733;79;21008;-57
2022/09/01 09:02:51;;;;;;;7.50;0.90;;;;;;;19.85;73.91;99360.53;2227932;79;21003;-59
2022/09/01 09:05:53;;;;;;;;;;;;;;;19.86;79.88;99358.23;2226994;78;21020;-59
2022/09/01 09:08:55;;;;;;;7.55;1.00;;;;;;;20.01;80.17;99352.84;2228689;79;20210;-58
2022/09/01 09:11:57;;;;;;;5.45;0.95;;;;;;;20.17;82.93;99352.73;2230721;79;21023;-56
2022/09/01 09:14:59;;;;;;;2.37;0.72;;;;;;;20.25;77.66;99357.69;2226879;80;21038;-57
2022/09/01 09:18:01;;;;;;;;;;;;;;;20.21;76.32;99356.80;2232258;80;21581;-58
2022/09/01 09:21:03;;;;;;;2.40;0.80;;;;;;;20.21;74.13;99355.46;2227882;78;20163;-58
2022/09/01 09:24:04;;;;;;;;;;;;;;;20.35;74.19;99364.34;2230978;79;21015;-58
2022/09/01 09:27:06;;;;;;;2.52;0.68;;;;;;;20.25;72.16;99357.69;2228844;78;20127;-57
2022/09/01 09:30:07;;;;;;;7.03;0.68;;;;;;;20.46;77.86;99350.02;2228696;78;20999;-57
2022/09/01 09:33:11;;;;;;;2.58;0.57;;;;;;;20.55;77.71;99350.98;2228184;79;21043;-58
2022/09/01 09:36:13;;;;;;;7.00;1.20;;;;;;;20.82;75.69;99337.39;2229492;78;21007;-59
2022/09/01 09:39:15;;;;;;;2.33;0.60;;;;;;;20.97;72.75;99348.39;2228169;80;21530;-58
2022/09/01 09:42:16;;;;;;;4.47;0.85;;;;;;;21.01;67.74;99355.11;2230388;79;21038;-59
2022/09/01 09:45:19;;;;;;;1.27;0.30;;;;;;;20.95;74.61;99345.87;2229234;79;21517;-57
2022/09/01 09:48:20;;;;;;;3.90;0.68;;;;;;;20.98;61.67;99348.75;2229029;79;21000;-59
2022/09/01 09:51:22;;;;;;;2.92;1.15;;;;;;;20.75;59.54;99338.45;2228038;79;21498;-58
2022/09/01 09:54:23;;;;;;;2.10;0.62;;;;;;;20.71;62.85;99340.56;2228427;79;20965;-58
2022/09/01 09:57:25;;;;;;;4.92;0.90;;;;;;;20.84;63.95;99355.39;2227319;80;21557;-58
2022/09/01 10:00:27;;;;;;;2.02;0.55;;;;;;;20.80;64.09;99339.34;2228023;79;21008;-57
2022/09/01 10:03:28;;;;;;;2.12;0.60;;;;;;;20.84;64.63;99336.73;2227947;79;21609;-57
2022/09/01 10:06:30;;;;;;;2.80;0.60;;;;;;;20.93;64.30;99347.83;2228472;79;21082;-58
2022/09/01 10:09:31;;;;;;;4.15;0.55;;;;;;;21.03;60.21;99340.66;2228723;78;22383;-58
2022/09/01 10:12:33;;;;;;;3.20;0.60;;;;;;;21.12;59.08;99337.59;2228664;80;20996;-58
2022/09/01 10:15:35;;;;;;;1.40;0.53;;;;;;;21.16;63.03;99346.97;2228238;79;21011;-58
2022/09/01 10:18:36;;;;;;;1.17;0.55;;;;;;;21.31;60.87;99340.63;2229119;79;21110;-58
2022/09/01 10:21:39;;;;;;;2.58;0.60;;;;;;;21.46;60.23;99337.79;2227806;79;21047;-58
2022/09/01 10:24:40;;;;;;;3.50;0.60;;;;;;;21.39;60.01;99331.86;2223940;79;21051;-57
2022/09/01 10:27:42;;;;;;;2.83;0.50;;;;;;;21.37;62.00;99329.84;2228256;79;21028;-57
2022/09/01 10:30:44;;;;;;;4.10;0.70;;;;;;;21.42;56.92;99332.88;2227591;79;21035;-58
2022/09/01 10:33:46;;;;;;;5.70;0.88;;;;;;;21.39;58.77;99335.86;2225325;79;21626;-57
2022/09/01 10:36:48;;;;;;;3.40;0.88;;;;;;;21.49;61.33;99333.13;2229060;79;20998;-57
2022/09/01 10:39:49;;;;;;;2.45;0.80;;;;;;;21.49;60.14;99331.29;2228212;79;21058;-59
2022/09/01 10:42:53;;;;;;;3.17;0.62;;;;;;;21.57;58.13;99336.75;2202873;80;21687;-59
2022/09/01 10:45:55;;;;;;;1.92;0.60;;;;;;;21.66;59.18;99332.83;2228012;80;21012;-57
2022/09/01 10:48:56;;;;;;;4.03;0.90;;;;;;;21.67;59.15;99338.52;2228929;80;20999;-57
2022/09/01 10:51:58;;;;;;;4.62;0.72;;;;;;;21.79;58.75;99343.48;2226428;79;21054;-56
2022/09/01 10:55:00;;;;;;;4.85;1.17;;;;;;;21.90;62.16;99343.72;2228364;80;20976;-57
2022/09/01 10:58:02;;;;;;;2.22;0.50;;;;;;;21.92;59.54;99328.88;2228460;78;21046;-57
2022/09/01 11:01:04;;;;;;;2.75;0.50;;;;;;;21.95;59.67;99335.23;2228179;79;20980;-57
2022/09/01 11:04:05;;;;;;;1.75;0.70;;;;;;;22.00;60.83;99327.61;2228512;80;20972;-57
2022/09/01 11:07:07;;;;;;;4.33;0.93;;;;;;;22.46;59.22;99322.12;2228592;79;21517;-57
2022/09/01 11:10:09;;;;;;;1.15;0.40;;;;;;;22.63;57.20;99337.24;2228433;80;20999;-57
2022/09/01 11:13:13;;;;;;;2.85;0.53;;;;;;;21.97;57.63;99335.44;2227719;78;21043;-57
2022/09/01 11:16:14;;;;;;;2.52;0.42;;;;;;;21.66;56.68;99328.83;2202053;79;21572;-58
2022/09/01 11:19:15;;;;;;;2.27;0.65;;;;;;;21.20;56.93;99318.98;2228251;79;21073;-56
2022/09/01 11:22:16;;;;;;;6.75;0.80;;;;;;;21.51;56.07;99324.50;2229416;80;21007;-57
2022/09/01 11:25:18;;;;;;;3.85;0.53;;;;;;;21.80;57.10;99321.10;2228482;79;20985;-57
2022/09/01 11:28:19;;;;;;;2.60;0.40;;;;;;;22.05;52.66;99319.12;2228981;79;21003;-57
2022/09/01 11:31:21;;;;;;;3.65;0.68;;;;;;;22.19;55.83;99319.90;2228583;79;21534;-59
2022/09/01 11:34:22;;;;;;;3.33;0.40;;;;;;;22.41;56.18;99319.06;2229874;79;21023;-59
2022/09/01 11:37:23;;;;;;;2.08;0.47;;;;;;;22.62;55.08;99314.17;2228400;79;21024;-59
2022/09/01 11:40:25;;;;;;;8.80;1.17;;;;;;;22.79;56.08;99317.77;2228653;79;20957;-59
2022/09/01 11:43:26;;;;;;;5.70;0.50;;;;;;;22.11;53.41;99329.19;2227772;79;21039;-59
2022/09/01 11:46:29;;;;;;;4.40;0.60;;;;;;;21.20;56.22;99320.83;2228157;79;21031;-60
2022/09/01 11:49:30;;;;;;;;;;;;;;;20.91;56.33;99310.66;2230937;79;21042;-59
2022/09/01 11:52:32;;;;;;;3.13;0.60;;;;;;;;;;2228646;79;20108;-59
2022/09/01 11:55:34;;;;;;;0.68;0.40;;;;;;;21.69;54.94;99307.98;2229213;79;21051;-59
2022/09/01 11:58:38;;;;;;;1.75;0.40;;;;;;;22.16;57.47;99301.52;2228612;79;21012;-59
2022/09/01 12:01:38;;;;;;;2.90;0.47;;;;;;;22.41;56.71;99294.54;2190645;79;21098;-59
2022/09/01 12:04:40;;;;;;;3.30;0.70;;;;;;;22.60;52.99;99296.13;2228375;79;21063;-58
2022/09/01 12:07:42;;;;;;;;;;;;;;;23.00;54.08;99287.08;2230876;79;21031;-59
2022/09/01 12:10:44;;;;;;;1.87;0.50;;;;;;;23.29;50.56;99286.70;2228718;79;20131;-58
2022/09/01 12:13:47;;;;;;;4.20;0.62;;;;;;;22.91;53.34;99290.23;2226498;79;21047;-59
2022/09/01 12:16:49;;;;;;;4.35;0.95;;;;;;;22.14;53.33;99298.18;2208689;79;21581;-59
2022/09/01 12:19:50;;;;;;;3.37;0.95;;;;;;;22.37;55.02;99295.84;2227054;79;21023;-59
2022/09/01 12:22:52;;;;;;;3.05;0.68;;;;;;;22.65;53.25;99295.64;2228264;79;21008;-59
2022/09/01 12:25:54;;;;;;;1.32;0.50;;;;;;;22.83;54.12;99275.52;2228576;80;20992;-59
2022/09/01 12:28:56;;;;;;;3.02;0.60;;;;;;;22.93;53.42;99285.58;2228865;79;21640;-59
2022/09/01 12:31:58;;;;;;;0.62;0.33;;;;;;;22.51;51.41;99281.03;2228486;79;21051;-59
2022/09/01 12:34:59;;;;;;;;;;;;;;;22.17;53.42;99279.64;2232428;80;21518;-59
2022/09/01 12:38:01;;;;;;;5.62;0.88;;;;;;;22.48;54.33;99274.67;2228629;80;20084;-58
2022/09/01 12:41:02;;;;;;;1.40;0.40;;;;;;;22.69;55.18;99291.66;2228562;79;21612;-59
2022/09/01 12:44:04;;;;;;;1.67;0.50;;;;;;;22.07;55.45;99291.28;2228993;79;20976;-58
2022/09/01 12:47:05;;;;;;;2.10;0.33;;;;;;;21.04;54.94;99295.64;2228018;79;21083;-57
2022/09/01 12:50:07;;;;;;;3.05;0.60;;;;;;;20.37;58.99;99297.13;2228700;79;21051;-57
2022/09/01 12:53:08;;;;;;;2.75;0.62;;;;;;;20.15;60.05;99290.80;2228106;79;20988;-57
2022/09/01 12:56:10;;;;;;;3.20;0.57;;;;;;;20.76;60.04;99282.33;2230070;79;21624;-57
2022/09/01 12:59:12;;;;;;;4.78;0.47;;;;;;;21.51;57.34;99277.80;2228325;80;20999;-57
2022/09/01 13:02:13;;;;;;;4.37;0.50;;;;;;;22.14;59.24;99275.47;2228455;80;21478;-57
2022/09/01 13:05:14;;;;;;;1.57;0.30;;;;;;;22.79;55.92;99270.15;2230330;80;20960;-57
2022/09/01 13:08:16;;;;;;;2.42;0.23;;;;;;;22.96;52.57;99270.53;2228871;80;21529;-57
2022/09/01 13:11:17;;;;;;;1.67;0.37;;;;;;;22.91;50.17;99273.36;2228768;80;21007;-57
2022/09/01 13:14:19;;;;;;;2.75;0.42;;;;;;;23.15;53.29;99265.42;2228406;80;21023;-57
2022/09/01 13:17:22;;;;;;;0.95;0.50;;;;;;;23.26;53.25;99260.75;2230021;79;20993;-57
2022/09/01 13:20:24;;;;;;;1.75;0.40;;;;;;;23.35;52.62;99258.44;2227595;79;21507;-57
2022/09/01 13:23:26;;;;;;;1.32;0.53;;;;;;;23.61;53.76;99252.10;2228138;79;21055;-57
2022/09/01 13:26:30;;;;;;;11.45;1.05;;;;;;;23.77;50.37;99264.13;2229002;79;21017;-57
2022/09/01 13:29:31;;;;;;;0.95;0.40;;;;;;;23.30;54.09;99270.98;2224649;80;21007;-58
2022/09/01 13:32:33;;;;;;;2.17;0.53;;;;;;;23.13;50.88;99263.42;2229313;79;21023;-59
2022/09/01 13:35:34;;;;;;;3.17;0.93;;;;;;;23.04;50.86;99268.38;2228359;79;21046;-59
2022/09/01 13:38:36;;;;;;;2.20;0.62;;;;;;;22.90;50.38;99273.87;2228046;80;21047;-59
2022/09/01 13:41:38;;;;;;;1.45;0.50;;;;;;;23.03;51.07;99268.53;2229103;79;21011;-59
2022/09/01 13:44:39;;;;;;;;;;;;;;;23.11;51.94;99260.57;2231973;79;20969;-59
2022/09/01 13:47:41;;;;;;;5.43;0.70;;;;;;;23.30;53.19;99256.27;2228068;80;20120;-59
2022/09/01 13:50:42;;;;;;;1.90;0.72;;;;;;;23.23;52.10;99261.95;2228600;79;21031;-59
2022/09/01 13:53:44;;;;;;;4.85;0.60;;;;;;;22.49;52.06;99267.01;2226724;80;21008;-59
2022/09/01 13:56:45;;;;;;;3.02;0.85;;;;;;;21.86;53.63;99274.26;2230114;79;21054;-59
2022/09/01 13:59:47;;;;;;;5.62;0.50;;;;;;;21.13;56.77;99279.23;2224763;79;21502;-59
2022/09/01 14:02:48;;;;;;;3.70;0.57;;;;;;;20.60;59.59;99280.75;2228403;79;20991;-60
2022/09/01 14:05:51;;;;;;;4.47;0.88;;;;;;;20.04;61.32;99291.31;2229544;79;21087;-59
2022/09/01 14:08:52;;;;;;;5.85;1.07;;;;;;;19.76;63.47;99289.00;2229531;79;20992;-59
2022/09/01 14:11:54;;;;;;;3.70;0.62;;;;;;;19.47;65.00;99289.84;2228312;79;21495;-58
2022/09/01 14:14:55;;;;;;;1.32;0.50;;;;;;;19.28;65.83;99287.16;2228068;79;20976;-58
2022/09/01 14:17:57;;;;;;;1.70;0.60;;;;;;;19.17;66.74;99289.47;2228246;80;21588;-58
2022/09/01 14:21:00;;;;;;;8.18;1.10;;;;;;;19.10;68.17;99293.16;2227576;80;21042;-59
2022/09/01 14:24:01;;;;;;;3.92;0.90;;;;;;;18.99;67.55;99297.25;2229150;79;21007;-59
2022/09/01 14:27:03;;;;;;;4.20;0.57;;;;;;;18.89;67.83;99295.06;2228666;79;21066;-57